createdAt,value
2023-01-22T00:01:03.837Z,5.63
2023-01-22T00:03:31.573Z,5.70
2023-01-22T00:05:59.266Z,5.60
2023-01-22T00:08:27.094Z,5.37
2023-01-22T00:10:56.985Z,5.90
2023-01-22T00:13:26.643Z,5.83
2023-01-22T00:15:54.782Z,6.00
2023-01-22T00:18:22.488Z,5.40
2023-01-22T00:20:51.558Z,6.10
2023-01-22T00:23:20.100Z,5.83
2023-01-22T00:25:48.175Z,5.50
2023-01-22T00:28:17.833Z,5.40
2023-01-22T00:30:45.510Z,6.17
2023-01-22T00:33:13.244Z,5.97
2023-01-22T00:35:40.962Z,5.77
2023-01-22T00:38:08.631Z,4.60
2023-01-22T00:40:36.341Z,5.33
2023-01-22T00:43:04.043Z,6.13
2023-01-22T00:45:34.109Z,5.57
2023-01-22T00:48:01.884Z,5.80
2023-01-22T00:50:29.731Z,5.73
2023-01-22T00:52:57.761Z,5.87
2023-01-22T00:55:25.489Z,5.97
2023-01-22T00:57:53.235Z,5.90
2023-01-22T01:00:22.503Z,5.50
2023-01-22T01:03:08.942Z,5.23
2023-01-22T01:05:36.651Z,5.90
2023-01-22T01:08:04.315Z,4.30
2023-01-22T01:10:32.058Z,6.07
2023-01-22T01:12:59.799Z,6.13
2023-01-22T01:15:27.549Z,5.47
2023-01-22T01:17:56.597Z,5.80
2023-01-22T01:20:24.321Z,6.17
2023-01-22T01:22:51.993Z,6.00
2023-01-22T01:25:19.762Z,6.43
2023-01-22T01:27:47.553Z,7.40
2023-01-22T01:30:15.797Z,6.00
2023-01-22T01:32:43.856Z,6.37
2023-01-22T01:35:12.974Z,5.87
2023-01-22T01:37:40.646Z,5.00
2023-01-22T01:40:09.638Z,6.07
2023-01-22T01:42:41.046Z,6.30
2023-01-22T01:45:29.157Z,5.27
2023-01-22T01:48:04.521Z,5.70
2023-01-22T01:50:34.532Z,6.07
2023-01-22T01:53:03.272Z,5.70
2023-01-22T01:55:35.569Z,5.70
2023-01-22T01:58:10.393Z,5.63
2023-01-22T02:00:41.569Z,5.33
2023-01-22T02:03:09.225Z,5.20
2023-01-22T02:05:40.113Z,5.20
2023-01-22T02:08:09.639Z,6.17
2023-01-22T02:10:37.701Z,5.03
2023-01-22T02:13:10.075Z,5.70
2023-01-22T02:15:39.727Z,5.37
2023-01-22T02:18:07.927Z,5.90
2023-01-22T02:20:37.622Z,6.00
2023-01-22T02:23:06.566Z,6.50
2023-01-22T02:25:34.897Z,5.43
2023-01-22T02:28:02.601Z,4.80
2023-01-22T02:30:30.306Z,5.67
2023-01-22T02:32:58.015Z,5.60
2023-01-22T02:35:25.671Z,5.20
2023-01-22T02:37:54.734Z,3.90
2023-01-22T02:40:22.621Z,5.30
2023-01-22T02:42:50.354Z,6.20
2023-01-22T02:45:18.299Z,6.43
2023-01-22T02:47:45.963Z,5.50
2023-01-22T02:50:13.807Z,6.20
2023-01-22T02:52:41.529Z,6.03
2023-01-22T02:55:11.429Z,5.40
2023-01-22T02:57:39.156Z,5.37
2023-01-22T03:00:08.231Z,5.43
2023-01-22T03:02:35.944Z,5.63
2023-01-22T03:05:04.778Z,5.70
2023-01-22T03:07:42.289Z,5.87
2023-01-22T03:10:17.638Z,5.30
2023-01-22T03:13:04.430Z,5.60
2023-01-22T03:15:49.785Z,5.90
2023-01-22T03:18:35.210Z,5.73
2023-01-22T03:21:18.785Z,5.93
2023-01-22T03:23:48.408Z,5.83
2023-01-22T03:26:17.936Z,5.43
2023-01-22T03:28:46.915Z,5.70
2023-01-22T03:31:15.972Z,6.03
2023-01-22T03:33:44.737Z,5.57
2023-01-22T03:36:15.805Z,5.67
2023-01-22T03:38:45.041Z,5.40
2023-01-22T03:41:15.376Z,5.50
2023-01-22T03:43:44.628Z,5.70
2023-01-22T03:46:14.013Z,5.60
2023-01-22T03:48:42.201Z,5.50
2023-01-22T03:51:11.747Z,5.63
2023-01-22T03:53:39.944Z,5.67
2023-01-22T03:56:09.638Z,4.83
2023-01-22T03:58:37.950Z,4.93
2023-01-22T04:01:09.155Z,5.40
2023-01-22T04:03:37.576Z,4.93
2023-01-22T04:06:06.375Z,5.30
2023-01-22T04:08:36.014Z,5.23
2023-01-22T04:11:04.616Z,4.60
2023-01-22T04:13:33.953Z,5.00
2023-01-22T04:16:02.060Z,5.67
2023-01-22T04:18:31.947Z,5.47
2023-01-22T04:20:59.699Z,6.20
2023-01-22T04:23:27.768Z,5.53
2023-01-22T04:25:55.588Z,4.77
2023-01-22T04:28:23.303Z,5.80
2023-01-22T04:30:53.138Z,5.33
2023-01-22T04:33:20.942Z,5.57
2023-01-22T04:35:53.046Z,5.27
2023-01-22T04:38:20.909Z,6.13
2023-01-22T04:40:48.603Z,5.63
2023-01-22T04:43:16.648Z,4.90
2023-01-22T04:45:44.391Z,5.00
2023-01-22T04:48:12.703Z,5.17
2023-01-22T04:50:40.658Z,5.20
2023-01-22T04:53:11.099Z,5.47
2023-01-22T04:55:38.761Z,5.10
2023-01-22T04:58:06.395Z,5.07
2023-01-22T05:00:34.191Z,5.07
2023-01-22T05:03:03.134Z,5.43
2023-01-22T05:05:31.793Z,5.70
2023-01-22T05:08:00.733Z,5.57
2023-01-22T05:10:30.382Z,4.83
2023-01-22T05:12:58.320Z,5.20
2023-01-22T05:15:26.115Z,5.47
2023-01-22T05:17:54.192Z,5.50
2023-01-22T05:20:22.431Z,5.53
2023-01-22T05:22:50.248Z,5.40
2023-01-22T05:25:18.508Z,5.33
2023-01-22T05:27:47.626Z,5.20
2023-01-22T05:30:16.034Z,5.60
2023-01-22T05:32:43.875Z,5.37
2023-01-22T05:35:12.317Z,5.77
2023-01-22T05:37:40.039Z,5.63
2023-01-22T05:40:09.949Z,6.33
2023-01-22T05:42:37.652Z,5.80
2023-01-22T05:45:07.978Z,5.27
2023-01-22T05:47:35.687Z,5.17
2023-01-22T05:50:03.368Z,5.63
2023-01-22T05:52:31.069Z,5.43
2023-01-22T05:54:59.953Z,5.20
2023-01-22T05:57:29.748Z,5.10
2023-01-22T05:59:57.510Z,5.27
2023-01-22T06:02:26.613Z,5.30
2023-01-22T06:04:54.320Z,6.17
2023-01-22T06:07:22.047Z,5.47
2023-01-22T06:09:49.843Z,5.77
2023-01-22T06:12:20.088Z,4.87
2023-01-22T06:14:47.815Z,5.73
2023-01-22T06:17:15.853Z,5.57
2023-01-22T06:19:44.941Z,5.70
2023-01-22T06:22:12.642Z,5.77
2023-01-22T06:24:40.365Z,5.53
2023-01-22T06:27:08.047Z,5.57
2023-01-22T06:29:40.060Z,5.93
2023-01-22T06:32:07.933Z,5.20
2023-01-22T06:34:35.611Z,5.13
2023-01-22T06:37:04.732Z,5.63
2023-01-22T06:39:32.510Z,6.20
2023-01-22T06:42:00.514Z,6.00
2023-01-22T06:44:28.242Z,5.57
2023-01-22T06:46:56.167Z,5.17
2023-01-22T06:49:23.912Z,5.20
2023-01-22T06:51:51.741Z,5.67
2023-01-22T06:54:20.816Z,6.37
2023-01-22T06:56:48.501Z,6.10
2023-01-22T06:59:16.220Z,4.57
2023-01-22T07:01:44.011Z,6.00
2023-01-22T07:04:11.861Z,5.47
2023-01-22T07:06:39.638Z,5.67
2023-01-22T07:09:07.386Z,5.20
2023-01-22T07:11:36.486Z,5.20
2023-01-22T07:14:04.231Z,5.90
2023-01-22T07:16:32.084Z,5.93
2023-01-22T07:18:59.789Z,5.47
2023-01-22T07:21:28.141Z,5.83
2023-01-22T07:23:55.939Z,5.17
2023-01-22T07:26:23.670Z,5.27
2023-01-22T07:28:52.733Z,5.33
2023-01-22T07:31:20.535Z,5.50
2023-01-22T07:33:48.518Z,5.90
2023-01-22T07:36:16.260Z,5.80
2023-01-22T07:38:43.949Z,5.40
2023-01-22T07:41:25.193Z,5.87
2023-01-22T07:43:57.580Z,5.70
2023-01-22T07:46:25.525Z,5.97
2023-01-22T07:48:53.287Z,5.63
2023-01-22T07:51:21.089Z,5.20
2023-01-22T07:53:48.897Z,6.13
2023-01-22T07:56:18.045Z,5.67
2023-01-22T07:58:45.821Z,5.83
2023-01-22T08:01:15.736Z,6.00
2023-01-22T08:03:43.527Z,5.93
2023-01-22T08:06:12.475Z,5.50
2023-01-22T08:08:40.253Z,5.53
2023-01-22T08:11:07.946Z,5.30
2023-01-22T08:13:35.737Z,5.73
2023-01-22T08:16:03.491Z,5.60
2023-01-22T08:18:32.552Z,5.20
2023-01-22T08:21:01.193Z,5.70
2023-01-22T08:23:28.900Z,5.50
2023-01-22T08:25:59.445Z,5.30
2023-01-22T08:28:27.480Z,5.67
2023-01-22T08:30:58.788Z,5.60
2023-01-22T08:33:26.666Z,5.50
2023-01-22T08:35:55.837Z,5.70
2023-01-22T08:38:23.588Z,4.97
2023-01-22T08:40:53.892Z,5.93
2023-01-22T08:43:21.675Z,4.87
2023-01-22T08:45:50.345Z,5.80
2023-01-22T08:48:18.796Z,5.30
2023-01-22T08:50:46.570Z,6.73
2023-01-22T08:53:15.692Z,5.20
2023-01-22T08:55:49.837Z,5.33
2023-01-22T08:58:17.722Z,5.30
2023-01-22T09:00:45.502Z,5.17
2023-01-22T09:03:13.806Z,5.00
2023-01-22T09:05:41.748Z,5.70
2023-01-22T09:08:09.781Z,5.80
2023-01-22T09:10:38.881Z,5.47
2023-01-22T09:13:06.563Z,5.87
2023-01-22T09:15:34.294Z,5.07
2023-01-22T09:18:01.987Z,5.43
2023-01-22T09:20:30.123Z,5.77
2023-01-22T09:22:57.801Z,4.97
2023-01-22T09:25:26.317Z,5.50
2023-01-22T09:28:00.052Z,5.30
2023-01-22T09:30:30.168Z,4.70
2023-01-22T09:32:58.235Z,6.77
2023-01-22T09:35:26.868Z,5.77
2023-01-22T09:37:55.049Z,5.20
2023-01-22T09:40:27.635Z,5.50
2023-01-22T09:43:03.540Z,5.90
2023-01-22T09:45:33.445Z,5.30
2023-01-22T09:48:02.992Z,5.90
2023-01-22T09:50:34.888Z,4.80
2023-01-22T09:53:07.415Z,5.00
2023-01-22T09:55:41.959Z,5.27
2023-01-22T09:58:15.788Z,5.33
2023-01-22T10:00:47.857Z,4.90
2023-01-22T10:03:26.018Z,5.97
2023-01-22T10:05:58.699Z,5.90
2023-01-22T10:08:32.356Z,5.23
2023-01-22T10:11:01.863Z,5.20
2023-01-22T10:13:34.054Z,5.40
2023-01-22T10:16:02.123Z,4.67
2023-01-22T10:18:35.972Z,4.60
2023-01-22T10:21:06.210Z,4.60
2023-01-22T10:23:35.888Z,5.33
2023-01-22T10:26:15.226Z,5.10
2023-01-22T10:28:48.981Z,4.47
2023-01-22T10:31:29.837Z,4.67
2023-01-22T10:33:59.873Z,4.47
2023-01-22T10:36:33.611Z,5.00
2023-01-22T10:39:11.573Z,4.37
2023-01-22T10:41:41.022Z,5.27
2023-01-22T10:44:19.341Z,4.60
2023-01-22T10:46:49.598Z,4.93
2023-01-22T10:49:19.876Z,4.97
2023-01-22T10:51:53.039Z,4.67
2023-01-22T10:54:23.888Z,4.80
2023-01-22T10:56:52.733Z,4.60
2023-01-22T10:59:25.789Z,4.67
2023-01-22T11:01:58.876Z,5.60
2023-01-22T11:04:29.271Z,4.20
2023-01-22T11:07:01.019Z,4.60
2023-01-22T11:09:36.165Z,4.87
2023-01-22T11:12:13.201Z,4.37
2023-01-22T11:14:42.412Z,4.70
2023-01-22T11:17:19.107Z,4.53
2023-01-22T11:19:55.557Z,4.60
2023-01-22T11:22:30.038Z,4.70
2023-01-22T11:24:57.744Z,4.73
2023-01-22T11:27:53.877Z,4.67
2023-01-22T11:30:45.335Z,4.80
2023-01-22T11:33:30.508Z,5.20
2023-01-22T11:36:02.584Z,5.77
2023-01-22T11:38:43.654Z,4.70
2023-01-22T11:41:37.775Z,4.87
2023-01-22T11:44:30.273Z,4.77
2023-01-22T11:47:12.554Z,4.10
2023-01-22T11:49:57.113Z,4.13
2023-01-22T11:52:41.232Z,4.23
2023-01-22T11:55:44.523Z,3.60
2023-01-22T11:58:22.332Z,4.60
2023-01-22T12:01:09.579Z,3.90
2023-01-22T12:04:04.331Z,5.17
2023-01-22T12:07:11.895Z,5.50
2023-01-22T12:09:49.169Z,4.10
2023-01-22T12:12:41.350Z,4.73
2023-01-22T12:15:29.091Z,4.00
2023-01-22T12:18:16.561Z,4.60
2023-01-22T12:20:59.496Z,4.30
2023-01-22T12:23:33.743Z,3.67
2023-01-22T12:26:08.402Z,3.73
2023-01-22T12:28:44.428Z,4.10
2023-01-22T12:31:17.633Z,4.00
2023-01-22T12:33:46.080Z,4.00
2023-01-22T12:36:18.764Z,4.63
2023-01-22T12:38:54.077Z,4.13
2023-01-22T12:41:45.282Z,4.07
2023-01-22T12:44:24.424Z,4.17
2023-01-22T12:47:02.526Z,4.43
2023-01-22T12:49:30.423Z,4.03
2023-01-22T12:52:00.225Z,4.37
2023-01-22T12:54:33.588Z,3.70
2023-01-22T12:57:13.822Z,3.93
2023-01-22T12:59:45.416Z,3.83
2023-01-22T13:02:38.817Z,3.83
2023-01-22T13:05:40.158Z,3.13
2023-01-22T13:08:28.817Z,3.90
2023-01-22T13:10:58.604Z,3.47
2023-01-22T13:13:31.134Z,3.27
2023-01-22T13:16:04.354Z,3.40
2023-01-22T13:18:36.435Z,3.53
2023-01-22T13:21:06.463Z,3.77
2023-01-22T13:23:37.726Z,3.60
2023-01-22T13:26:05.739Z,3.70
2023-01-22T13:28:34.165Z,3.17
2023-01-22T13:31:03.830Z,3.70
2023-01-22T13:33:32.704Z,3.97
2023-01-22T13:36:10.802Z,3.57
2023-01-22T13:38:39.957Z,4.00
2023-01-22T13:41:10.187Z,4.07
2023-01-22T13:43:39.535Z,3.63
2023-01-22T13:46:08.053Z,3.67
2023-01-22T13:48:35.818Z,4.07
2023-01-22T13:51:07.032Z,3.80
2023-01-22T13:53:40.648Z,4.17
2023-01-22T13:56:15.616Z,3.73
2023-01-22T13:58:48.817Z,4.20
2023-01-22T14:01:29.113Z,3.73
2023-01-22T14:04:01.649Z,3.67
2023-01-22T14:06:30.282Z,3.97
2023-01-22T14:08:59.275Z,4.47
2023-01-22T14:11:38.412Z,3.93
2023-01-22T14:14:16.090Z,4.00
2023-01-22T14:16:44.039Z,4.10
2023-01-22T14:19:11.997Z,3.70
2023-01-22T14:21:39.709Z,4.03
2023-01-22T14:24:08.587Z,3.90
2023-01-22T14:26:37.991Z,3.23
2023-01-22T14:29:05.799Z,4.53
2023-01-22T14:31:33.680Z,4.80
2023-01-22T14:34:01.627Z,4.00
2023-01-22T14:36:29.439Z,3.37
2023-01-22T14:38:57.804Z,4.30
2023-01-22T14:41:25.795Z,3.70
2023-01-22T14:43:54.965Z,3.80
2023-01-22T14:46:22.663Z,3.30
2023-01-22T14:48:50.420Z,3.63
2023-01-22T14:51:18.170Z,4.40
2023-01-22T14:53:45.935Z,5.03
2023-01-22T14:56:13.640Z,3.60
2023-01-22T14:58:41.407Z,3.80
2023-01-22T15:01:18.426Z,3.47
2023-01-22T15:03:46.149Z,3.17
2023-01-22T15:06:13.837Z,3.47
2023-01-22T15:08:41.652Z,4.63
2023-01-22T15:11:09.482Z,3.57
2023-01-22T15:13:37.232Z,3.30
2023-01-22T15:16:06.195Z,3.83
2023-01-22T15:18:38.447Z,3.10
2023-01-22T15:21:07.100Z,3.40
2023-01-22T15:23:35.664Z,3.50
2023-01-22T15:26:05.961Z,3.77
2023-01-22T15:28:33.814Z,3.80
2023-01-22T15:31:07.521Z,3.53
2023-01-22T15:33:37.609Z,3.37
2023-01-22T15:36:06.171Z,3.40
2023-01-22T15:38:33.920Z,3.20
2023-01-22T15:41:06.872Z,3.40
2023-01-22T15:43:35.017Z,3.73
2023-01-22T15:46:02.855Z,3.17
2023-01-22T15:48:30.642Z,4.20
2023-01-22T15:51:08.841Z,3.03
2023-01-22T15:53:37.396Z,3.00
2023-01-22T15:56:06.457Z,3.03
2023-01-22T15:58:34.451Z,2.90
2023-01-22T16:01:02.747Z,3.27
2023-01-22T16:03:30.606Z,2.63
2023-01-22T16:06:10.139Z,3.77
2023-01-22T16:08:37.954Z,3.00
2023-01-22T16:11:06.303Z,3.03
2023-01-22T16:13:34.252Z,3.20
2023-01-22T16:16:03.359Z,3.10
2023-01-22T16:18:33.078Z,3.13
2023-01-22T16:21:01.857Z,3.23
2023-01-22T16:23:31.879Z,4.77
2023-01-22T16:26:01.075Z,3.77
2023-01-22T16:28:29.022Z,3.30
2023-01-22T16:30:56.916Z,3.83
2023-01-22T16:33:28.631Z,3.53
2023-01-22T16:36:00.204Z,3.03
2023-01-22T16:38:28.228Z,3.17
2023-01-22T16:41:07.814Z,3.40
2023-01-22T16:43:36.412Z,3.00
2023-01-22T16:46:04.910Z,3.23
2023-01-22T16:48:32.668Z,3.17
2023-01-22T16:51:00.396Z,2.97
2023-01-22T16:53:28.241Z,3.30
2023-01-22T16:55:57.602Z,3.50
2023-01-22T16:58:25.465Z,3.17
2023-01-22T17:00:53.165Z,3.10
2023-01-22T17:03:20.829Z,3.80
2023-01-22T17:05:49.809Z,3.57
2023-01-22T17:08:17.564Z,3.50
2023-01-22T17:10:45.461Z,2.50
2023-01-22T17:13:14.876Z,2.97
2023-01-22T17:15:43.770Z,3.17
2023-01-22T17:18:11.571Z,2.90
2023-01-22T17:20:39.415Z,2.80
2023-01-22T17:23:07.318Z,3.47
2023-01-22T17:25:35.227Z,3.40
2023-01-22T17:28:03.318Z,3.50
2023-01-22T17:30:32.585Z,3.40
2023-01-22T17:33:00.407Z,6.43
2023-01-22T17:35:28.499Z,5.07
2023-01-22T17:37:56.374Z,3.80
2023-01-22T17:40:25.259Z,4.40
2023-01-22T17:42:53.063Z,3.90
2023-01-22T17:45:21.165Z,3.77
2023-01-22T17:47:50.509Z,4.07
2023-01-22T17:50:18.406Z,3.43
2023-01-22T17:52:46.320Z,4.03
2023-01-22T17:55:14.382Z,3.90
2023-01-22T17:57:42.215Z,4.30
2023-01-22T18:00:11.157Z,3.80
2023-01-22T18:02:38.981Z,3.83
2023-01-22T18:05:10.394Z,3.33
2023-01-22T18:07:38.256Z,3.53
2023-01-22T18:10:06.521Z,3.97
2023-01-22T18:12:34.520Z,4.20
2023-01-22T18:15:02.200Z,4.23
2023-01-22T18:17:29.884Z,3.83
2023-01-22T18:19:57.656Z,4.17
2023-01-22T18:22:26.803Z,4.00
2023-01-22T18:24:54.569Z,4.13
2023-01-22T18:27:22.288Z,4.70
2023-01-22T18:29:50.042Z,4.40
2023-01-22T18:32:17.910Z,5.57
2023-01-22T18:34:45.651Z,4.70
2023-01-22T18:37:13.313Z,4.37
2023-01-22T18:39:42.465Z,3.50
2023-01-22T18:42:10.260Z,4.07
2023-01-22T18:44:41.403Z,5.00
2023-01-22T18:47:11.360Z,4.97
2023-01-22T18:49:39.480Z,4.47
2023-01-22T18:52:07.173Z,4.60
2023-01-22T18:54:34.985Z,3.90
2023-01-22T18:57:04.140Z,4.77
2023-01-22T18:59:31.900Z,4.47
2023-01-22T19:02:00.612Z,4.40
2023-01-22T19:04:30.253Z,4.57
2023-01-22T19:06:57.961Z,4.03
2023-01-22T19:09:27.003Z,4.47
2023-01-22T19:11:55.564Z,4.93
2023-01-22T19:14:25.196Z,4.87
2023-01-22T19:16:54.219Z,4.07
2023-01-22T19:19:23.199Z,4.70
2023-01-22T19:21:53.926Z,3.37
2023-01-22T19:24:25.101Z,3.60
2023-01-22T19:26:54.717Z,4.00
2023-01-22T19:29:25.371Z,3.33
2023-01-22T19:31:54.229Z,4.03
2023-01-22T19:34:24.773Z,3.60
2023-01-22T19:37:01.159Z,3.87
2023-01-22T19:39:28.998Z,3.40
2023-01-22T19:41:56.728Z,2.97
2023-01-22T19:44:25.896Z,3.40
2023-01-22T19:46:53.732Z,3.40
2023-01-22T19:49:22.064Z,3.00
2023-01-22T19:51:49.960Z,3.17
2023-01-22T19:54:18.766Z,2.90
2023-01-22T19:56:46.590Z,3.30
2023-01-22T19:59:16.420Z,3.07
2023-01-22T20:01:47.401Z,2.90
2023-01-22T20:04:20.615Z,2.50
2023-01-22T20:06:50.915Z,3.27
2023-01-22T20:09:21.428Z,2.97
2023-01-22T20:11:53.413Z,2.50
2023-01-22T20:14:21.603Z,3.20
2023-01-22T20:16:51.043Z,2.80
2023-01-22T20:19:18.773Z,3.07
2023-01-22T20:21:46.550Z,3.40
2023-01-22T20:24:17.175Z,3.40
2023-01-22T20:26:44.844Z,3.60
2023-01-22T20:29:13.159Z,3.07
2023-01-22T20:31:40.974Z,3.17
2023-01-22T20:34:10.067Z,2.50
2023-01-22T20:36:37.913Z,2.80
2023-01-22T20:39:06.076Z,2.73
2023-01-22T20:41:34.409Z,3.13
2023-01-22T20:44:02.220Z,2.83
2023-01-22T20:46:30.018Z,2.60
2023-01-22T20:48:58.962Z,3.03
2023-01-22T20:51:29.739Z,2.73
2023-01-22T20:53:58.204Z,2.80
2023-01-22T20:56:28.838Z,3.27
2023-01-22T20:58:57.620Z,3.10
2023-01-22T21:01:26.082Z,3.07
2023-01-22T21:03:55.579Z,3.00
2023-01-22T21:06:24.518Z,3.27
2023-01-22T21:08:56.143Z,3.40
2023-01-22T21:11:25.094Z,2.87
2023-01-22T21:13:54.011Z,3.67
2023-01-22T21:16:26.239Z,4.23
2023-01-22T21:18:55.717Z,3.93
2023-01-22T21:21:23.495Z,3.87
2023-01-22T21:23:54.843Z,3.47
2023-01-22T21:26:24.518Z,3.20
2023-01-22T21:28:55.128Z,3.27
2023-01-22T21:31:24.448Z,3.40
2023-01-22T21:34:02.261Z,3.67
2023-01-22T21:36:30.591Z,3.80
2023-01-22T21:38:59.948Z,3.30
2023-01-22T21:41:28.394Z,3.80
2023-01-22T21:44:13.477Z,3.30
2023-01-22T21:46:43.089Z,3.00
2023-01-22T21:49:21.088Z,3.10
2023-01-22T21:51:50.325Z,3.77
2023-01-22T21:54:21.321Z,3.00
2023-01-22T21:56:49.328Z,3.40
2023-01-22T21:59:17.091Z,3.23
2023-01-22T22:01:45.314Z,3.30
2023-01-22T22:04:15.047Z,3.87
2023-01-22T22:06:43.335Z,3.40
2023-01-22T22:09:14.586Z,3.77
2023-01-22T22:11:44.314Z,3.60
2023-01-22T22:14:13.669Z,3.50
2023-01-22T22:16:41.492Z,3.30
2023-01-22T22:19:09.482Z,3.97
2023-01-22T22:21:37.811Z,3.67
2023-01-22T22:24:06.861Z,3.13
2023-01-22T22:26:34.980Z,4.40
2023-01-22T22:29:04.157Z,3.83
2023-01-22T22:31:31.891Z,3.63
2023-01-22T22:33:59.727Z,4.07
2023-01-22T22:36:29.630Z,3.77
2023-01-22T22:38:57.704Z,3.73
2023-01-22T22:41:27.017Z,3.40
2023-01-22T22:43:56.326Z,3.00
2023-01-22T22:46:26.668Z,3.00
2023-01-22T22:48:55.893Z,3.00
2023-01-22T22:51:25.660Z,2.93
2023-01-22T22:53:55.257Z,2.90
2023-01-22T22:56:23.710Z,3.33
2023-01-22T22:58:51.800Z,3.20
2023-01-22T23:01:21.497Z,2.97
2023-01-22T23:03:51.387Z,2.80
2023-01-22T23:06:21.510Z,2.70
2023-01-22T23:08:52.310Z,3.00
2023-01-22T23:11:23.715Z,3.10
2023-01-22T23:13:51.980Z,3.63
2023-01-22T23:16:21.720Z,2.80
2023-01-22T23:18:52.383Z,2.90
2023-01-22T23:21:22.730Z,3.20
2023-01-22T23:23:51.630Z,2.97
2023-01-22T23:26:26.536Z,3.00
2023-01-22T23:28:56.557Z,2.77
2023-01-22T23:31:26.619Z,3.07
2023-01-22T23:33:56.349Z,2.67
2023-01-22T23:36:25.982Z,3.03
2023-01-22T23:38:53.952Z,3.40
2023-01-22T23:41:22.089Z,3.13
2023-01-22T23:43:51.010Z,2.90
2023-01-22T23:46:20.368Z,3.00
2023-01-22T23:48:48.630Z,3.40
2023-01-22T23:51:18.595Z,2.90
2023-01-22T23:53:48.724Z,3.17
2023-01-22T23:56:17.101Z,2.90
2023-01-22T23:58:44.954Z,3.20
